sensor_id;sensor_type;location;lat;lon;timestamp;pressure;altitude;pressure_sealevel;temperature
58102;BMP280;52034;51.926;6.320;2024-01-11T00:00:28;102955.28;;;-4.34
58102;BMP280;52034;51.926;6.320;2024-01-11T00:01:29;102953.78;;;-4.35
58102;BMP280;52034;51.926;6.320;2024-01-11T00:02:31;102948.72;;;-4.42
58102;BMP280;52034;51.926;6.320;2024-01-11T00:03:33;102954.50;;;-4.40
58102;BMP280;52034;51.926;6.320;2024-01-11T00:04:34;102950.69;;;-4.42
58102;BMP280;52034;51.926;6.320;2024-01-11T00:05:36;102959.47;;;-4.38
58102;BMP280;52034;51.926;6.320;2024-01-11T00:06:44;102963.97;;;-4.35
58102;BMP280;52034;51.926;6.320;2024-01-11T00:07:47;102960.03;;;-4.34
58102;BMP280;52034;51.926;6.320;2024-01-11T00:08:49;102968.50;;;-4.32
58102;BMP280;52034;51.926;6.320;2024-01-11T00:09:51;102955.50;;;-4.37
58102;BMP280;52034;51.926;6.320;2024-01-11T00:10:52;102958.25;;;-4.37
58102;BMP280;52034;51.926;6.320;2024-01-11T00:11:54;102961.47;;;-4.39
58102;BMP280;52034;51.926;6.320;2024-01-11T00:12:55;102956.19;;;-4.42
58102;BMP280;52034;51.926;6.320;2024-01-11T00:13:57;102953.69;;;-4.46
58102;BMP280;52034;51.926;6.320;2024-01-11T00:14:58;102955.38;;;-4.48
58102;BMP280;52034;51.926;6.320;2024-01-11T00:16:00;102956.63;;;-4.49
58102;BMP280;52034;51.926;6.320;2024-01-11T00:17:02;102950.09;;;-4.52
58102;BMP280;52034;51.926;6.320;2024-01-11T00:18:03;102948.84;;;-4.51
58102;BMP280;52034;51.926;6.320;2024-01-11T00:19:05;102949.16;;;-4.49
58102;BMP280;52034;51.926;6.320;2024-01-11T00:20:07;102953.09;;;-4.50
58102;BMP280;52034;51.926;6.320;2024-01-11T00:21:09;102958.59;;;-4.50
58102;BMP280;52034;51.926;6.320;2024-01-11T00:22:10;102960.59;;;-4.50
58102;BMP280;52034;51.926;6.320;2024-01-11T00:23:12;102955.75;;;-4.55
58102;BMP280;52034;51.926;6.320;2024-01-11T00:24:13;102961.25;;;-4.55
58102;BMP280;52034;51.926;6.320;2024-01-11T00:25:15;102958.25;;;-4.57
58102;BMP280;52034;51.926;6.320;2024-01-11T00:26:16;102961.72;;;-4.57
58102;BMP280;52034;51.926;6.320;2024-01-11T00:27:18;102966.47;;;-4.57
58102;BMP280;52034;51.926;6.320;2024-01-11T00:28:20;102961.47;;;-4.59
58102;BMP280;52034;51.926;6.320;2024-01-11T00:29:21;102956.19;;;-4.62
58102;BMP280;52034;51.926;6.320;2024-01-11T00:30:23;102961.66;;;-4.62
58102;BMP280;52034;51.926;6.320;2024-01-11T00:31:24;102966.38;;;-4.63
58102;BMP280;52034;51.926;6.320;2024-01-11T00:32:26;102970.13;;;-4.66
58102;BMP280;52034;51.926;6.320;2024-01-11T00:33:28;102961.91;;;-4.66
58102;BMP280;52034;51.926;6.320;2024-01-11T00:34:29;102961.13;;;-4.66
58102;BMP280;52034;51.926;6.320;2024-01-11T00:35:31;102954.88;;;-4.67
58102;BMP280;52034;51.926;6.320;2024-01-11T00:36:32;102966.78;;;-4.70
58102;BMP280;52034;51.926;6.320;2024-01-11T00:37:34;102973.50;;;-4.71
58102;BMP280;52034;51.926;6.320;2024-01-11T00:38:36;102978.97;;;-4.71
58102;BMP280;52034;51.926;6.320;2024-01-11T00:39:38;102965.28;;;-4.71
58102;BMP280;52034;51.926;6.320;2024-01-11T00:40:39;102966.03;;;-4.70
58102;BMP280;52034;51.926;6.320;2024-01-11T00:41:41;102968.31;;;-4.69
58102;BMP280;52034;51.926;6.320;2024-01-11T00:42:42;102973.34;;;-4.67
58102;BMP280;52034;51.926;6.320;2024-01-11T00:43:44;102961.91;;;-4.66
58102;BMP280;52034;51.926;6.320;2024-01-11T00:44:45;102968.88;;;-4.65
58102;BMP280;52034;51.926;6.320;2024-01-11T00:45:47;102972.84;;;-4.66
58102;BMP280;52034;51.926;6.320;2024-01-11T00:46:48;102970.13;;;-4.66
58102;BMP280;52034;51.926;6.320;2024-01-11T00:47:50;102966.31;;;-4.68
58102;BMP280;52034;51.926;6.320;2024-01-11T00:48:52;102963.78;;;-4.72
58102;BMP280;52034;51.926;6.320;2024-01-11T00:49:57;102955.56;;;-4.72
58102;BMP280;52034;51.926;6.320;2024-01-11T00:50:58;102956.78;;;-4.73
58102;BMP280;52034;51.926;6.320;2024-01-11T00:52:00;102961.53;;;-4.73
58102;BMP280;52034;51.926;6.320;2024-01-11T00:53:02;102965.00;;;-4.73
58102;BMP280;52034;51.926;6.320;2024-01-11T00:54:04;102954.25;;;-4.76
58102;BMP280;52034;51.926;6.320;2024-01-11T00:55:06;102957.72;;;-4.76
58102;BMP280;52034;51.926;6.320;2024-01-11T00:56:18;102959.25;;;-4.75
58102;BMP280;52034;51.926;6.320;2024-01-11T00:57:19;102954.25;;;-4.76
58102;BMP280;52034;51.926;6.320;2024-01-11T00:58:23;102958.97;;;-4.77
58102;BMP280;52034;51.926;6.320;2024-01-11T00:59:24;102963.97;;;-4.75
58102;BMP280;52034;51.926;6.320;2024-01-11T01:00:26;102961.72;;;-4.77
58102;BMP280;52034;51.926;6.320;2024-01-11T01:01:27;102963.72;;;-4.77
58102;BMP280;52034;51.926;6.320;2024-01-11T01:02:29;102970.41;;;-4.78
58102;BMP280;52034;51.926;6.320;2024-01-11T01:03:31;102969.69;;;-4.79
58102;BMP280;52034;51.926;6.320;2024-01-11T01:04:32;102971.94;;;-4.77
58102;BMP280;52034;51.926;6.320;2024-01-11T01:05:34;102966.47;;;-4.77
58102;BMP280;52034;51.926;6.320;2024-01-11T01:06:36;102969.69;;;-4.79
58102;BMP280;52034;51.926;6.320;2024-01-11T01:07:38;102971.94;;;-4.77
58102;BMP280;52034;51.926;6.320;2024-01-11T01:08:39;102972.91;;;-4.80
58102;BMP280;52034;51.926;6.320;2024-01-11T01:09:41;102973.63;;;-4.80
58102;BMP280;52034;51.926;6.320;2024-01-11T01:10:43;102974.09;;;-4.81
58102;BMP280;52034;51.926;6.320;2024-01-11T01:11:44;102976.13;;;-4.82
58102;BMP280;52034;51.926;6.320;2024-01-11T01:12:46;102974.09;;;-4.81
58102;BMP280;52034;51.926;6.320;2024-01-11T01:13:47;102975.16;;;-4.79
58102;BMP280;52034;51.926;6.320;2024-01-11T01:14:49;102974.88;;;-4.81
58102;BMP280;52034;51.926;6.320;2024-01-11T01:15:51;102976.84;;;-4.81
58102;BMP280;52034;51.926;6.320;2024-01-11T01:16:52;102974.41;;;-4.79
58102;BMP280;52034;51.926;6.320;2024-01-11T01:17:54;102970.41;;;-4.78
58102;BMP280;52034;51.926;6.320;2024-01-11T01:18:55;102972.41;;;-4.79
58102;BMP280;52034;51.926;6.320;2024-01-11T01:19:57;102961.66;;;-4.82
58102;BMP280;52034;51.926;6.320;2024-01-11T01:20:59;102963.63;;;-4.83
58102;BMP280;52034;51.926;6.320;2024-01-11T01:22:00;102960.88;;;-4.83
58102;BMP280;52034;51.926;6.320;2024-01-11T01:23:02;102957.13;;;-4.85
58102;BMP280;52034;51.926;6.320;2024-01-11T01:24:03;102958.38;;;-4.86
58102;BMP280;52034;51.926;6.320;2024-01-11T01:25:05;102961.56;;;-4.88
58102;BMP280;52034;51.926;6.320;2024-01-11T01:26:07;102953.81;;;-4.89
58102;BMP280;52034;51.926;6.320;2024-01-11T01:27:08;102959.47;;;-4.93
58102;BMP280;52034;51.926;6.320;2024-01-11T01:28:10;102952.22;;;-4.96
58102;BMP280;52034;51.926;6.320;2024-01-11T01:29:11;102960.91;;;-4.97
58102;BMP280;52034;51.926;6.320;2024-01-11T01:30:13;102953.94;;;-4.98
58102;BMP280;52034;51.926;6.320;2024-01-11T01:31:15;102956.13;;;-5.02
58102;BMP280;52034;51.926;6.320;2024-01-11T01:32:16;102959.91;;;-5.00
58102;BMP280;52034;51.926;6.320;2024-01-11T01:33:18;102967.84;;;-5.02
58102;BMP280;52034;51.926;6.320;2024-01-11T01:34:20;102972.81;;;-5.00
58102;BMP280;52034;51.926;6.320;2024-01-11T01:35:22;102973.78;;;-5.03
58102;BMP280;52034;51.926;6.320;2024-01-11T01:36:24;102982.28;;;-5.01
58102;BMP280;52034;51.926;6.320;2024-01-11T01:37:25;102975.00;;;-5.04
58102;BMP280;52034;51.926;6.320;2024-01-11T01:38:27;102975.31;;;-5.02
58102;BMP280;52034;51.926;6.320;2024-01-11T01:39:28;102980.03;;;-5.03
58102;BMP280;52034;51.926;6.320;2024-01-11T01:40:30;102977.28;;;-5.03
58102;BMP280;52034;51.926;6.320;2024-01-11T01:41:33;102979.53;;;-5.01
58102;BMP280;52034;51.926;6.320;2024-01-11T01:42:35;102973.78;;;-5.03
58102;BMP280;52034;51.926;6.320;2024-01-11T01:43:36;102972.56;;;-5.02
58102;BMP280;52034;51.926;6.320;2024-01-11T01:44:37;102981.03;;;-5.00
58102;BMP280;52034;51.926;6.320;2024-01-11T01:45:42;102977.28;;;-5.03
58102;BMP280;52034;51.926;6.320;2024-01-11T01:46:44;102971.81;;;-5.03
58102;BMP280;52034;51.926;6.320;2024-01-11T01:47:46;102979.72;;;-5.05
58102;BMP280;52034;51.926;6.320;2024-01-11T01:48:47;102975.47;;;-5.06
58102;BMP280;52034;51.926;6.320;2024-01-11T01:49:49;102974.72;;;-5.06
58102;BMP280;52034;51.926;6.320;2024-01-11T01:50:51;102983.44;;;-5.08
58102;BMP280;52034;51.926;6.320;2024-01-11T01:51:53;102979.16;;;-5.09
58102;BMP280;52034;51.926;6.320;2024-01-11T01:52:55;102983.13;;;-5.10
58102;BMP280;52034;51.926;6.320;2024-01-11T01:53:57;102982.13;;;-5.12
58102;BMP280;52034;51.926;6.320;2024-01-11T01:54:59;102982.59;;;-5.14
58102;BMP280;52034;51.926;6.320;2024-01-11T01:56:01;102977.13;;;-5.14
58102;BMP280;52034;51.926;6.320;2024-01-11T01:57:03;102981.81;;;-5.14
58102;BMP280;52034;51.926;6.320;2024-01-11T01:58:05;102978.34;;;-5.15
58102;BMP280;52034;51.926;6.320;2024-01-11T01:59:07;102981.09;;;-5.15
58102;BMP280;52034;51.926;6.320;2024-01-11T02:00:09;102983.84;;;-5.15
58102;BMP280;52034;51.926;6.320;2024-01-11T02:01:13;102982.59;;;-5.14
58102;BMP280;52034;51.926;6.320;2024-01-11T02:02:15;102984.84;;;-5.12
58102;BMP280;52034;51.926;6.320;2024-01-11T02:03:16;102984.09;;;-5.13
58102;BMP280;52034;51.926;6.320;2024-01-11T02:04:18;102980.63;;;-5.13
58102;BMP280;52034;51.926;6.320;2024-01-11T02:05:20;102984.09;;;-5.13
58102;BMP280;52034;51.926;6.320;2024-01-11T02:06:23;102981.09;;;-5.15
58102;BMP280;52034;51.926;6.320;2024-01-11T02:07:26;102984.31;;;-5.16
58102;BMP280;52034;51.926;6.320;2024-01-11T02:08:28;102982.78;;;-5.17
58102;BMP280;52034;51.926;6.320;2024-01-11T02:09:30;102987.53;;;-5.18
58102;BMP280;52034;51.926;6.320;2024-01-11T02:10:31;102993.91;;;-5.21
58102;BMP280;52034;51.926;6.320;2024-01-11T02:11:34;102988.72;;;-5.19
58102;BMP280;52034;51.926;6.320;2024-01-11T02:12:36;102988.72;;;-5.19
58102;BMP280;52034;51.926;6.320;2024-01-11T02:13:41;102988.72;;;-5.19
58102;BMP280;52034;51.926;6.320;2024-01-11T02:14:42;102991.00;;;-5.17
58102;BMP280;52034;51.926;6.320;2024-01-11T02:15:44;102991.00;;;-5.17
58102;BMP280;52034;51.926;6.320;2024-01-11T02:16:46;102997.22;;;-5.17
58102;BMP280;52034;51.926;6.320;2024-01-11T02:17:48;102997.72;;;-5.18
58102;BMP280;52034;51.926;6.320;2024-01-11T02:18:50;102996.94;;;-5.19
58102;BMP280;52034;51.926;6.320;2024-01-11T02:19:51;102996.94;;;-5.19
58102;BMP280;52034;51.926;6.320;2024-01-11T02:20:53;102997.22;;;-5.17
58102;BMP280;52034;51.926;6.320;2024-01-11T02:21:55;102986.44;;;-5.20
58102;BMP280;52034;51.926;6.320;2024-01-11T02:23:00;102995.13;;;-5.22
58102;BMP280;52034;51.926;6.320;2024-01-11T02:24:03;103001.84;;;-5.23
58102;BMP280;52034;51.926;6.320;2024-01-11T02:25:05;102993.34;;;-5.25
58102;BMP280;52034;51.926;6.320;2024-01-11T02:26:06;102998.81;;;-5.25
58102;BMP280;52034;51.926;6.320;2024-01-11T02:27:08;102997.31;;;-5.26
58102;BMP280;52034;51.926;6.320;2024-01-11T02:28:12;103003.34;;;-5.22
58102;BMP280;52034;51.926;6.320;2024-01-11T02:29:13;102999.09;;;-5.23
58102;BMP280;52034;51.926;6.320;2024-01-11T02:30:15;102999.88;;;-5.22
58102;BMP280;52034;51.926;6.320;2024-01-11T02:31:17;103006.06;;;-5.22
58102;BMP280;52034;51.926;6.320;2024-01-11T02:32:19;103004.28;;;-5.25
58102;BMP280;52034;51.926;6.320;2024-01-11T02:33:20;103001.84;;;-5.23
58102;BMP280;52034;51.926;6.320;2024-01-11T02:34:23;102995.34;;;-5.25
58102;BMP280;52034;51.926;6.320;2024-01-11T02:35:25;102994.56;;;-5.26
58102;BMP280;52034;51.926;6.320;2024-01-11T02:36:27;102998.25;;;-5.29
58102;BMP280;52034;51.926;6.320;2024-01-11T02:37:29;102992.78;;;-5.29
58102;BMP280;52034;51.926;6.320;2024-01-11T02:38:31;102987.03;;;-5.31
58102;BMP280;52034;51.926;6.320;2024-01-11T02:39:34;102993.25;;;-5.30
58102;BMP280;52034;51.926;6.320;2024-01-11T02:40:37;102991.75;;;-5.31
58102;BMP280;52034;51.926;6.320;2024-01-11T02:41:38;102987.53;;;-5.32
58102;BMP280;52034;51.926;6.320;2024-01-11T02:42:40;102994.22;;;-5.33
58102;BMP280;52034;51.926;6.320;2024-01-11T02:43:48;102986.28;;;-5.31
58102;BMP280;52034;51.926;6.320;2024-01-11T02:44:53;102987.53;;;-5.32
58102;BMP280;52034;51.926;6.320;2024-01-11T02:45:55;102989.03;;;-5.31
58102;BMP280;52034;51.926;6.320;2024-01-11T02:46:57;102992.25;;;-5.33
58102;BMP280;52034;51.926;6.320;2024-01-11T02:47:58;102990.53;;;-5.30
58102;BMP280;52034;51.926;6.320;2024-01-11T02:49:00;102986.28;;;-5.31
58102;BMP280;52034;51.926;6.320;2024-01-11T02:50:02;102992.53;;;-5.31
58102;BMP280;52034;51.926;6.320;2024-01-11T02:51:04;102984.03;;;-5.33
58102;BMP280;52034;51.926;6.320;2024-01-11T02:52:06;102986.75;;;-5.33
58102;BMP280;52034;51.926;6.320;2024-01-11T02:53:07;102982.06;;;-5.32
58102;BMP280;52034;51.926;6.320;2024-01-11T02:54:09;102987.03;;;-5.31
58102;BMP280;52034;51.926;6.320;2024-01-11T02:55:11;102983.06;;;-5.30
58102;BMP280;52034;51.926;6.320;2024-01-11T02:56:12;102987.59;;;-5.27
58102;BMP280;52034;51.926;6.320;2024-01-11T02:57:14;102979.09;;;-5.29
58102;BMP280;52034;51.926;6.320;2024-01-11T02:58:16;102989.88;;;-5.25
58102;BMP280;52034;51.926;6.320;2024-01-11T02:59:17;102992.38;;;-5.22
58102;BMP280;52034;51.926;6.320;2024-01-11T03:00:19;102975.97;;;-5.22
58102;BMP280;52034;51.926;6.320;2024-01-11T03:01:21;102974.94;;;-5.24
58102;BMP280;52034;51.926;6.320;2024-01-11T03:02:22;102973.63;;;-5.29
58102;BMP280;52034;51.926;6.320;2024-01-11T03:03:24;102978.84;;;-5.31
58102;BMP280;52034;51.926;6.320;2024-01-11T03:04:26;102970.81;;;-5.34
58102;BMP280;52034;51.926;6.320;2024-01-11T03:05:28;102967.00;;;-5.37
58102;BMP280;52034;51.926;6.320;2024-01-11T03:06:29;102964.00;;;-5.39
58102;BMP280;52034;51.926;6.320;2024-01-11T03:07:31;102969.00;;;-5.37
58102;BMP280;52034;51.926;6.320;2024-01-11T03:08:34;102967.00;;;-5.37
58102;BMP280;52034;51.926;6.320;2024-01-11T03:09:36;102965.00;;;-5.36
58102;BMP280;52034;51.926;6.320;2024-01-11T03:10:37;102955.63;;;-5.35
58102;BMP280;52034;51.926;6.320;2024-01-11T03:11:42;102956.34;;;-5.35
58102;BMP280;52034;51.926;6.320;2024-01-11T03:12:43;102963.50;;;-5.37
58102;BMP280;52034;51.926;6.320;2024-01-11T03:13:45;102967.69;;;-5.42
58102;BMP280;52034;51.926;6.320;2024-01-11T03:14:47;102960.16;;;-5.47
58102;BMP280;52034;51.926;6.320;2024-01-11T03:15:49;102954.13;;;-5.51
58102;BMP280;52034;51.926;6.320;2024-01-11T03:16:51;102953.03;;;-5.54
58102;BMP280;52034;51.926;6.320;2024-01-11T03:17:52;102979.38;;;-5.56
58102;BMP280;52034;51.926;6.320;2024-01-11T03:18:54;102989.09;;;-5.55
58102;BMP280;52034;51.926;6.320;2024-01-11T03:19:56;102992.31;;;-5.57
58102;BMP280;52034;51.926;6.320;2024-01-11T03:20:58;102996.56;;;-5.56
58102;BMP280;52034;51.926;6.320;2024-01-11T03:21:59;103006.28;;;-5.55
58102;BMP280;52034;51.926;6.320;2024-01-11T03:23:04;103007.31;;;-5.52
58102;BMP280;52034;51.926;6.320;2024-01-11T03:24:06;103005.31;;;-5.52
58102;BMP280;52034;51.926;6.320;2024-01-11T03:25:08;102995.31;;;-5.55
58102;BMP280;52034;51.926;6.320;2024-01-11T03:26:15;102998.84;;;-5.54
58102;BMP280;52034;51.926;6.320;2024-01-11T03:27:17;102996.09;;;-5.54
58102;BMP280;52034;51.926;6.320;2024-01-11T03:28:18;103004.31;;;-5.54
58102;BMP280;52034;51.926;6.320;2024-01-11T03:29:20;102994.56;;;-5.55
58102;BMP280;52034;51.926;6.320;2024-01-11T03:30:21;102999.00;;;-5.58
58102;BMP280;52034;51.926;6.320;2024-01-11T03:31:23;103000.50;;;-5.57
58102;BMP280;52034;51.926;6.320;2024-01-11T03:32:24;103005.50;;;-5.55
58102;BMP280;52034;51.926;6.320;2024-01-11T03:33:26;102995.63;;;-5.53
58102;BMP280;52034;51.926;6.320;2024-01-11T03:34:28;103000.34;;;-5.53
58102;BMP280;52034;51.926;6.320;2024-01-11T03:35:30;103002.59;;;-5.52
58102;BMP280;52034;51.926;6.320;2024-01-11T03:36:31;103004.13;;;-5.51
58102;BMP280;52034;51.926;6.320;2024-01-11T03:37:33;103006.13;;;-5.51
58102;BMP280;52034;51.926;6.320;2024-01-11T03:38:35;103008.38;;;-5.50
58102;BMP280;52034;51.926;6.320;2024-01-11T03:39:36;103007.63;;;-5.50
58102;BMP280;52034;51.926;6.320;2024-01-11T03:40:38;103008.84;;;-5.51
58102;BMP280;52034;51.926;6.320;2024-01-11T03:41:43;103003.66;;;-5.49
58102;BMP280;52034;51.926;6.320;2024-01-11T03:42:45;103002.41;;;-5.48
58102;BMP280;52034;51.926;6.320;2024-01-11T03:43:47;103002.41;;;-5.48
58102;BMP280;52034;51.926;6.320;2024-01-11T03:44:48;102997.69;;;-5.47
58102;BMP280;52034;51.926;6.320;2024-01-11T03:45:50;103003.19;;;-5.47
58102;BMP280;52034;51.926;6.320;2024-01-11T03:46:52;103004.41;;;-5.48
58102;BMP280;52034;51.926;6.320;2024-01-11T03:47:53;103001.69;;;-5.48
58102;BMP280;52034;51.926;6.320;2024-01-11T03:48:55;103006.22;;;-5.45
58102;BMP280;52034;51.926;6.320;2024-01-11T03:49:58;103002.53;;;-5.42
58102;BMP280;52034;51.926;6.320;2024-01-11T03:50:59;102997.31;;;-5.40
58102;BMP280;52034;51.926;6.320;2024-01-11T03:52:01;102996.84;;;-5.39
58102;BMP280;52034;51.926;6.320;2024-01-11T03:53:03;102998.34;;;-5.38
58102;BMP280;52034;51.926;6.320;2024-01-11T03:54:05;102999.88;;;-5.37
58102;BMP280;52034;51.926;6.320;2024-01-11T03:55:07;103005.06;;;-5.39
58102;BMP280;52034;51.926;6.320;2024-01-11T03:56:09;103006.47;;;-5.43
58102;BMP280;52034;51.926;6.320;2024-01-11T03:57:11;103002.41;;;-5.48
58102;BMP280;52034;51.926;6.320;2024-01-11T03:58:13;102997.91;;;-5.51
58102;BMP280;52034;51.926;6.320;2024-01-11T03:59:15;102989.09;;;-5.55
58102;BMP280;52034;51.926;6.320;2024-01-11T04:00:17;102995.81;;;-5.56
58102;BMP280;52034;51.926;6.320;2024-01-11T04:01:18;102995.50;;;-5.58
58102;BMP280;52034;51.926;6.320;2024-01-11T04:02:20;103006.19;;;-5.60
58102;BMP280;52034;51.926;6.320;2024-01-11T04:03:22;103008.38;;;-5.64
58102;BMP280;52034;51.926;6.320;2024-01-11T04:04:24;103001.84;;;-5.67
58102;BMP280;52034;51.926;6.320;2024-01-11T04:05:26;103000.31;;;-5.68
58102;BMP280;52034;51.926;6.320;2024-01-11T04:06:28;103000.78;;;-5.69
58102;BMP280;52034;51.926;6.320;2024-01-11T04:07:29;103017.50;;;-5.67
58102;BMP280;52034;51.926;6.320;2024-01-11T04:08:31;103024.03;;;-5.65
58102;BMP280;52034;51.926;6.320;2024-01-11T04:09:32;103025.81;;;-5.62
58102;BMP280;52034;51.926;6.320;2024-01-11T04:10:34;103028.81;;;-5.60
58102;BMP280;52034;51.926;6.320;2024-01-11T04:11:36;103033.66;;;-5.55
58102;BMP280;52034;51.926;6.320;2024-01-11T04:12:37;103021.94;;;-5.55
58102;BMP280;52034;51.926;6.320;2024-01-11T04:13:39;103031.66;;;-5.54
58102;BMP280;52034;51.926;6.320;2024-01-11T04:14:40;103030.91;;;-5.55
58102;BMP280;52034;51.926;6.320;2024-01-11T04:15:42;103025.13;;;-5.57
58102;BMP280;52034;51.926;6.320;2024-01-11T04:16:44;103025.59;;;-5.58
58102;BMP280;52034;51.926;6.320;2024-01-11T04:17:46;103030.06;;;-5.61
58102;BMP280;52034;51.926;6.320;2024-01-11T04:18:47;103035.75;;;-5.64
58102;BMP280;52034;51.926;6.320;2024-01-11T04:19:49;103025.41;;;-5.69
58102;BMP280;52034;51.926;6.320;2024-01-11T04:20:51;103029.38;;;-5.70
58102;BMP280;52034;51.926;6.320;2024-01-11T04:21:52;103033.31;;;-5.71
58102;BMP280;52034;51.926;6.320;2024-01-11T04:22:54;103037.00;;;-5.74
58102;BMP280;52034;51.926;6.320;2024-01-11T04:23:56;103041.72;;;-5.75
58102;BMP280;52034;51.926;6.320;2024-01-11T04:24:58;103033.53;;;-5.75
58102;BMP280;52034;51.926;6.320;2024-01-11T04:25:59;103044.72;;;-5.73
58102;BMP280;52034;51.926;6.320;2024-01-11T04:27:00;103044.72;;;-5.73
58102;BMP280;52034;51.926;6.320;2024-01-11T04:28:02;103036.25;;;-5.75
58102;BMP280;52034;51.926;6.320;2024-01-11T04:29:04;103036.72;;;-5.76
58102;BMP280;52034;51.926;6.320;2024-01-11T04:30:06;103040.97;;;-5.75
58102;BMP280;52034;51.926;6.320;2024-01-11T04:31:08;103045.22;;;-5.74
58102;BMP280;52034;51.926;6.320;2024-01-11T04:32:10;103042.94;;;-5.76
58102;BMP280;52034;51.926;6.320;2024-01-11T04:33:11;103048.41;;;-5.76
58102;BMP280;52034;51.926;6.320;2024-01-11T04:34:13;103043.44;;;-5.77
58102;BMP280;52034;51.926;6.320;2024-01-11T04:35:16;103054.19;;;-5.74
58102;BMP280;52034;51.926;6.320;2024-01-11T04:36:17;103060.41;;;-5.73
58102;BMP280;52034;51.926;6.320;2024-01-11T04:37:19;103051.66;;;-5.77
58102;BMP280;52034;51.926;6.320;2024-01-11T04:38:20;103061.34;;;-5.76
58102;BMP280;52034;51.926;6.320;2024-01-11T04:39:22;103054.38;;;-5.77
58102;BMP280;52034;51.926;6.320;2024-01-11T04:40:23;103060.88;;;-5.75
58102;BMP280;52034;51.926;6.320;2024-01-11T04:41:25;103056.34;;;-5.78
58102;BMP280;52034;51.926;6.320;2024-01-11T04:42:27;103061.81;;;-5.78
58102;BMP280;52034;51.926;6.320;2024-01-11T04:43:28;103060.31;;;-5.79
58102;BMP280;52034;51.926;6.320;2024-01-11T04:44:30;103065.50;;;-5.81
58102;BMP280;52034;51.926;6.320;2024-01-11T04:45:32;103054.09;;;-5.79
58102;BMP280;52034;51.926;6.320;2024-01-11T04:46:34;103061.81;;;-5.78
58102;BMP280;52034;51.926;6.320;2024-01-11T04:47:36;103059.34;;;-5.76
58102;BMP280;52034;51.926;6.320;2024-01-11T04:48:39;103053.88;;;-5.76
58102;BMP280;52034;51.926;6.320;2024-01-11T04:49:40;103058.63;;;-5.76
58102;BMP280;52034;51.926;6.320;2024-01-11T04:50:42;103054.66;;;-5.75
58102;BMP280;52034;51.926;6.320;2024-01-11T04:51:45;103054.66;;;-5.75
58102;BMP280;52034;51.926;6.320;2024-01-11T04:52:46;103051.75;;;-5.72
58102;BMP280;52034;51.926;6.320;2024-01-11T04:53:48;103052.31;;;-5.68
58102;BMP280;52034;51.926;6.320;2024-01-11T04:54:49;103053.66;;;-5.63
58102;BMP280;52034;51.926;6.320;2024-01-11T04:55:51;103059.13;;;-5.63
58102;BMP280;52034;51.926;6.320;2024-01-11T04:56:53;103054.75;;;-5.70
58102;BMP280;52034;51.926;6.320;2024-01-11T04:57:54;103058.88;;;-5.74
58102;BMP280;52034;51.926;6.320;2024-01-11T04:58:56;103058.88;;;-5.74
58102;BMP280;52034;51.926;6.320;2024-01-11T04:59:57;103066.63;;;-5.73
58102;BMP280;52034;51.926;6.320;2024-01-11T05:01:04;103057.13;;;-5.77
58102;BMP280;52034;51.926;6.320;2024-01-11T05:02:06;103057.13;;;-5.77
58102;BMP280;52034;51.926;6.320;2024-01-11T05:03:07;103056.53;;;-5.81
58102;BMP280;52034;51.926;6.320;2024-01-11T05:04:09;103063.31;;;-5.77
58102;BMP280;52034;51.926;6.320;2024-01-11T05:05:10;103069.09;;;-5.75
58102;BMP280;52034;51.926;6.320;2024-01-11T05:06:20;103070.31;;;-5.76
58102;BMP280;52034;51.926;6.320;2024-01-11T05:07:22;103066.81;;;-5.76
58102;BMP280;52034;51.926;6.320;2024-01-11T05:08:23;103073.53;;;-5.77
58102;BMP280;52034;51.926;6.320;2024-01-11T05:09:25;103071.53;;;-5.77
58102;BMP280;52034;51.926;6.320;2024-01-11T05:10:26;103067.84;;;-5.74
58102;BMP280;52034;51.926;6.320;2024-01-11T05:11:28;103071.91;;;-5.69
58102;BMP280;52034;51.926;6.320;2024-01-11T05:12:30;103066.63;;;-5.73
58102;BMP280;52034;51.926;6.320;2024-01-11T05:13:31;103062.38;;;-5.74
58102;BMP280;52034;51.926;6.320;2024-01-11T05:14:33;103069.81;;;-5.74
58102;BMP280;52034;51.926;6.320;2024-01-11T05:15:34;103067.28;;;-5.78
58102;BMP280;52034;51.926;6.320;2024-01-11T05:16:36;103070.31;;;-5.76
58102;BMP280;52034;51.926;6.320;2024-01-11T05:17:38;103054.38;;;-5.77
58102;BMP280;52034;51.926;6.320;2024-01-11T05:18:39;103058.63;;;-5.76
58102;BMP280;52034;51.926;6.320;2024-01-11T05:19:41;103062.38;;;-5.74
58102;BMP280;52034;51.926;6.320;2024-01-11T05:20:43;103061.06;;;-5.78
58102;BMP280;52034;51.926;6.320;2024-01-11T05:21:44;103059.56;;;-5.79
58102;BMP280;52034;51.926;6.320;2024-01-11T05:22:46;103055.59;;;-5.78
58102;BMP280;52034;51.926;6.320;2024-01-11T05:23:48;103053.88;;;-5.76
58102;BMP280;52034;51.926;6.320;2024-01-11T05:24:50;103051.66;;;-5.77
58102;BMP280;52034;51.926;6.320;2024-01-11T05:25:52;103050.88;;;-5.78
58102;BMP280;52034;51.926;6.320;2024-01-11T05:26:53;103055.13;;;-5.77
58102;BMP280;52034;51.926;6.320;2024-01-11T05:27:55;103048.63;;;-5.79
58102;BMP280;52034;51.926;6.320;2024-01-11T05:28:57;103045.88;;;-5.79
58102;BMP280;52034;51.926;6.320;2024-01-11T05:29:58;103040.28;;;-5.85
58102;BMP280;52034;51.926;6.320;2024-01-11T05:31:00;103034.81;;;-5.85
58102;BMP280;52034;51.926;6.320;2024-01-11T05:32:02;103025.28;;;-5.89
58102;BMP280;52034;51.926;6.320;2024-01-11T05:33:03;103024.84;;;-5.97
58102;BMP280;52034;51.926;6.320;2024-01-11T05:34:05;103006.19;;;-5.98
58102;BMP280;52034;51.926;6.320;2024-01-11T05:35:07;102991.09;;;-6.08
58102;BMP280;52034;51.926;6.320;2024-01-11T05:36:09;103011.72;;;-6.07
58102;BMP280;52034;51.926;6.320;2024-01-11T05:37:11;103027.50;;;-6.02
58102;BMP280;52034;51.926;6.320;2024-01-11T05:38:12;103029.66;;;-6.06
58102;BMP280;52034;51.926;6.320;2024-01-11T05:39:14;103027.88;;;-6.09
58102;BMP280;52034;51.926;6.320;2024-01-11T05:40:16;103038.81;;;-6.09
58102;BMP280;52034;51.926;6.320;2024-01-11T05:41:18;103039.06;;;-6.07
58102;BMP280;52034;51.926;6.320;2024-01-11T05:42:19;103029.81;;;-6.10
58102;BMP280;52034;51.926;6.320;2024-01-11T05:43:21;103020.00;;;-6.16
58102;BMP280;52034;51.926;6.320;2024-01-11T05:44:26;103024.81;;;-6.11
58102;BMP280;52034;51.926;6.320;2024-01-11T05:45:27;103015.09;;;-6.12
58102;BMP280;52034;51.926;6.320;2024-01-11T05:46:46;103019.03;;;-6.13
58102;BMP280;52034;51.926;6.320;2024-01-11T05:47:48;103008.59;;;-6.15
58102;BMP280;52034;51.926;6.320;2024-01-11T05:48:49;103007.53;;;-6.17
58102;BMP280;52034;51.926;6.320;2024-01-11T05:49:51;103016.31;;;-6.13
58102;BMP280;52034;51.926;6.320;2024-01-11T05:50:53;103019.34;;;-6.11
58102;BMP280;52034;51.926;6.320;2024-01-11T05:51:55;103019.66;;;-6.09